createdAt,value
2024-02-02T00:00:39.065Z,102235.34
2024-02-02T00:03:06.979Z,102236.78
2024-02-02T00:05:34.776Z,102232.72
2024-02-02T00:08:02.745Z,102230.78
2024-02-02T00:10:30.659Z,102223.53
2024-02-02T00:12:58.434Z,102237.13
2024-02-02T00:15:27.479Z,102231.47
2024-02-02T00:17:55.490Z,102225.50
2024-02-02T00:20:23.451Z,102225.16
2024-02-02T00:22:52.656Z,102225.78
2024-02-02T00:25:23.330Z,102220.81
2024-02-02T00:27:51.312Z,102213.72
2024-02-02T00:30:20.308Z,102218.94
2024-02-02T00:32:49.553Z,102217.56
2024-02-02T00:35:17.703Z,102210.38
2024-02-02T00:37:45.759Z,102212.00
2024-02-02T00:40:13.637Z,102218.22
2024-02-02T00:42:42.296Z,102207.91
2024-02-02T00:45:10.674Z,102218.16
2024-02-02T00:47:38.550Z,102217.19
2024-02-02T00:50:09.084Z,102213.38
2024-02-02T00:52:36.846Z,102210.56
2024-02-02T00:55:04.911Z,102212.25
2024-02-02T00:57:32.829Z,102207.72
2024-02-02T01:00:00.668Z,102212.00
2024-02-02T01:02:28.468Z,102210.56
2024-02-02T01:04:56.167Z,102199.38
2024-02-02T01:07:25.136Z,102212.84
2024-02-02T01:09:52.859Z,102211.72
2024-02-02T01:12:21.144Z,102207.34
2024-02-02T01:14:48.975Z,102215.41
2024-02-02T01:17:16.938Z,102216.13
2024-02-02T01:19:44.726Z,102215.41
2024-02-02T01:22:12.433Z,102218.75
2024-02-02T01:24:41.379Z,102220.44
2024-02-02T01:27:09.356Z,102221.78
2024-02-02T01:29:37.131Z,102223.47
2024-02-02T01:32:06.001Z,102221.50
2024-02-02T01:34:33.741Z,102219.66
2024-02-02T01:37:01.522Z,102219.66
2024-02-02T01:39:29.461Z,102219.94
2024-02-02T01:41:58.908Z,102221.50
2024-02-02T01:44:27.714Z,102218.09
2024-02-02T01:46:55.649Z,102215.53
2024-02-02T01:49:23.572Z,102222.88
2024-02-02T01:51:54.061Z,102234.94
2024-02-02T01:54:22.019Z,102229.56
2024-02-02T01:56:50.112Z,102224.19
2024-02-02T01:59:19.158Z,102222.47
2024-02-02T02:01:47.073Z,102216.84
2024-02-02T02:04:14.941Z,102215.00
2024-02-02T02:06:42.734Z,102212.19
2024-02-02T02:09:10.903Z,102212.91
2024-02-02T02:11:39.326Z,102204.56
2024-02-02T02:14:07.097Z,102205.81
2024-02-02T02:16:36.187Z,102211.78
2024-02-02T02:19:04.963Z,102202.84
2024-02-02T02:21:34.604Z,102199.78
2024-02-02T02:24:03.067Z,102182.91
2024-02-02T02:26:32.504Z,102174.84
2024-02-02T02:29:00.154Z,102173.41
2024-02-02T02:31:28.204Z,102174.97
2024-02-02T02:33:56.140Z,102167.63
2024-02-02T02:36:23.948Z,102162.91
2024-02-02T02:38:53.188Z,102148.59
2024-02-02T02:41:21.053Z,102151.19
2024-02-02T02:43:48.805Z,102155.69
2024-02-02T02:46:19.053Z,102140.41
2024-02-02T02:48:46.950Z,102132.22
2024-02-02T02:51:15.098Z,102131.34
2024-02-02T02:53:42.805Z,102134.91
2024-02-02T02:56:11.931Z,102129.06
2024-02-02T02:58:39.666Z,102129.06
2024-02-02T03:01:07.591Z,102125.41
2024-02-02T03:03:35.625Z,102130.50
2024-02-02T03:06:03.629Z,102132.22
2024-02-02T03:08:31.344Z,102130.81
2024-02-02T03:10:59.117Z,102133.34
2024-02-02T03:13:28.305Z,102142.41
2024-02-02T03:15:56.023Z,102141.19
2024-02-02T03:18:23.824Z,102134.78
2024-02-02T03:20:51.722Z,102124.31
2024-02-02T03:23:19.695Z,102129.97
2024-02-02T03:25:47.424Z,102132.50
2024-02-02T03:28:15.732Z,102123.84
2024-02-02T03:30:44.880Z,102123.56
2024-02-02T03:33:12.757Z,102130.94
2024-02-02T03:35:40.605Z,102134.47
2024-02-02T03:38:08.309Z,102126.41
2024-02-02T03:40:36.088Z,102123.31
2024-02-02T03:43:03.761Z,102117.22
2024-02-02T03:45:32.841Z,102123.56
2024-02-02T03:48:02.154Z,102116.50
2024-02-02T03:50:30.035Z,102118.91
2024-02-02T03:52:59.017Z,102112.28
2024-02-02T03:55:26.926Z,102106.63
2024-02-02T03:57:54.731Z,102102.38
2024-02-02T04:00:22.662Z,102106.63
2024-02-02T04:02:53.909Z,102098.44
2024-02-02T04:05:23.390Z,102103.94
2024-02-02T04:07:51.194Z,102087.78
2024-02-02T04:10:19.001Z,102098.53
2024-02-02T04:12:46.701Z,102098.69
2024-02-02T04:15:14.935Z,102096.41
2024-02-02T04:17:42.913Z,102090.63
2024-02-02T04:20:11.203Z,102080.00
2024-02-02T04:22:40.198Z,102088.50
2024-02-02T04:25:08.399Z,102088.22
2024-02-02T04:27:36.777Z,102082.28
2024-02-02T04:30:06.061Z,102080.44
2024-02-02T04:32:34.544Z,102080.44
2024-02-02T04:35:02.354Z,102070.66
2024-02-02T04:37:30.049Z,102072.50
2024-02-02T04:39:59.073Z,102069.66
2024-02-02T04:42:27.168Z,102074.78
2024-02-02T04:44:54.989Z,102069.97
2024-02-02T04:47:23.620Z,102061.75
2024-02-02T04:49:51.412Z,102053.81
2024-02-02T04:52:19.158Z,102058.91
2024-02-02T04:54:48.342Z,102045.00
2024-02-02T04:57:17.509Z,102037.09
2024-02-02T04:59:45.315Z,102037.22
2024-02-02T05:02:13.151Z,102037.22
2024-02-02T05:04:42.042Z,102028.72
2024-02-02T05:07:09.933Z,102034.69
2024-02-02T05:09:37.632Z,102025.78
2024-02-02T05:12:06.718Z,102021.09
2024-02-02T05:14:35.856Z,102024.34
2024-02-02T05:17:04.044Z,102018.84
2024-02-02T05:19:31.758Z,102007.34
2024-02-02T05:21:59.500Z,102010.72
2024-02-02T05:24:38.586Z,102014.72
2024-02-02T05:27:13.655Z,102016.41
2024-02-02T05:29:44.480Z,102013.44
2024-02-02T05:32:12.785Z,102023.63
2024-02-02T05:34:40.554Z,102022.94
2024-02-02T05:37:08.368Z,102027.50
2024-02-02T05:39:36.124Z,102028.06
2024-02-02T05:42:04.554Z,102026.50
2024-02-02T05:44:32.496Z,102019.28
2024-02-02T05:47:01.779Z,102022.97
2024-02-02T05:49:29.734Z,102020.41
2024-02-02T05:51:57.517Z,102014.31
2024-02-02T05:54:25.241Z,102015.59
2024-02-02T05:56:53.184Z,102025.63
2024-02-02T05:59:23.197Z,102029.47
2024-02-02T06:01:51.099Z,102031.47
2024-02-02T06:04:20.149Z,102026.78
2024-02-02T06:06:47.999Z,102017.84
2024-02-02T06:09:16.862Z,102021.25
2024-02-02T06:11:44.564Z,102000.72
2024-02-02T06:14:12.275Z,102000.84
2024-02-02T06:16:39.903Z,101981.16
2024-02-02T06:19:07.573Z,101976.63
2024-02-02T06:21:36.746Z,101952.69
2024-02-02T06:24:05.449Z,101953.53
2024-02-02T06:26:33.138Z,101947.59
2024-02-02T06:29:00.763Z,101964.00
2024-02-02T06:31:28.417Z,101963.31
2024-02-02T06:33:56.206Z,101945.91
2024-02-02T06:36:27.912Z,101944.19
2024-02-02T06:38:57.877Z,101952.41
2024-02-02T06:41:25.918Z,101939.78
2024-02-02T06:43:53.665Z,101929.72
2024-02-02T06:46:21.390Z,101934.84
2024-02-02T06:48:50.212Z,101938.66
2024-02-02T06:51:18.077Z,101930.47
2024-02-02T06:53:45.859Z,101934.28
2024-02-02T06:56:32.966Z,101932.84
2024-02-02T06:59:01.274Z,101920.38
2024-02-02T07:01:29.062Z,101931.16
2024-02-02T07:03:57.706Z,101933.72
2024-02-02T07:06:26.316Z,101927.91
2024-02-02T07:08:58.457Z,101927.63
2024-02-02T07:11:55.933Z,101912.19
2024-02-02T07:14:43.733Z,101900.72
2024-02-02T07:17:23.635Z,101892.38
2024-02-02T07:19:51.551Z,101901.13
2024-02-02T07:22:33.710Z,101908.34
2024-02-02T07:25:01.874Z,101909.34
2024-02-02T07:27:54.131Z,101907.53
2024-02-02T07:30:57.217Z,101900.72
2024-02-02T07:33:28.110Z,101903.56
2024-02-02T07:35:59.050Z,101893.22
2024-02-02T07:38:44.101Z,101905.66
2024-02-02T07:41:13.459Z,101898.88
2024-02-02T07:43:42.658Z,101896.63
2024-02-02T07:46:13.269Z,101896.34
2024-02-02T07:48:43.590Z,101897.63
2024-02-02T07:51:12.717Z,101892.22
2024-02-02T07:53:40.653Z,101892.63
2024-02-02T07:56:09.462Z,101898.31
2024-02-02T07:58:37.463Z,101882.16
2024-02-02T08:01:08.135Z,101895.88
2024-02-02T08:03:36.405Z,101891.53
2024-02-02T08:06:04.461Z,101887.56
2024-02-02T08:08:34.471Z,101887.81
2024-02-02T08:11:02.168Z,101889.09
2024-02-02T08:13:31.549Z,101882.16
2024-02-02T08:15:59.668Z,101885.44
2024-02-02T08:18:29.415Z,101868.56
2024-02-02T08:20:57.606Z,101874.66
2024-02-02T08:23:26.570Z,101876.06
2024-02-02T08:25:54.436Z,101876.06
2024-02-02T08:28:23.194Z,101867.72
2024-02-02T08:30:50.896Z,101867.56
2024-02-02T08:33:19.079Z,101859.47
2024-02-02T08:35:48.245Z,101852.97
2024-02-02T08:38:17.988Z,101856.63
2024-02-02T08:40:46.581Z,101844.88
2024-02-02T08:43:16.670Z,101834.28
2024-02-02T08:46:07.402Z,101828.84
2024-02-02T08:48:37.414Z,101828.72
2024-02-02T08:51:32.190Z,101826.56
2024-02-02T08:54:13.634Z,101826.56
2024-02-02T08:56:41.408Z,101816.19
2024-02-02T08:59:32.796Z,101823.16
2024-02-02T09:02:00.789Z,101809.69
2024-02-02T09:05:01.452Z,101804.13
2024-02-02T09:07:31.529Z,101808.91
2024-02-02T09:09:59.617Z,101800.97
2024-02-02T09:12:35.542Z,101795.34
2024-02-02T09:15:02.683Z,101797.22
2024-02-02T09:17:33.111Z,101790.44
2024-02-02T09:20:01.055Z,101793.38
2024-02-02T09:22:28.766Z,101807.00
2024-02-02T09:24:58.132Z,101800.59
2024-02-02T09:27:33.371Z,101785.88
2024-02-02T09:30:01.921Z,101800.34
2024-02-02T09:32:31.160Z,101795.34
2024-02-02T09:35:01.817Z,101798.28
2024-02-02T09:37:41.755Z,101787.28
2024-02-02T09:40:43.740Z,101784.31
2024-02-02T09:43:19.770Z,101784.41
2024-02-02T09:46:04.925Z,101788.25
2024-02-02T09:48:47.054Z,101777.47
2024-02-02T09:51:28.653Z,101785.72
2024-02-02T09:54:18.875Z,101781.28
2024-02-02T09:57:02.410Z,101786.38
2024-02-02T09:59:47.876Z,101786.97
2024-02-02T10:02:29.554Z,101788.81
2024-02-02T10:05:10.340Z,101778.59
2024-02-02T10:07:49.373Z,101777.44
2024-02-02T10:10:33.057Z,101780.53
2024-02-02T10:13:14.590Z,101778.59
2024-02-02T10:15:59.733Z,101775.19
2024-02-02T10:18:47.821Z,101773.88
2024-02-02T10:21:27.200Z,101771.06
2024-02-02T10:24:18.572Z,101772.69
2024-02-02T10:27:03.818Z,101766.44
2024-02-02T10:29:43.762Z,101764.28
2024-02-02T10:32:30.930Z,101774.75
2024-02-02T10:35:16.329Z,101784.63
2024-02-02T10:37:51.161Z,101774.00
2024-02-02T10:40:35.535Z,101774.44
2024-02-02T10:43:17.489Z,101764.97
2024-02-02T10:46:00.224Z,101753.34
2024-02-02T10:48:45.130Z,101755.66
2024-02-02T10:51:20.927Z,101751.25
2024-02-02T10:54:06.932Z,101762.03
2024-02-02T10:56:46.030Z,101754.25
2024-02-02T10:59:24.264Z,101743.84
2024-02-02T11:01:59.323Z,101728.78
2024-02-02T11:04:36.618Z,101730.78
2024-02-02T11:07:16.788Z,101736.41
2024-02-02T11:09:54.625Z,101728.47
2024-02-02T11:12:27.976Z,101718.16
2024-02-02T11:15:05.672Z,101720.09
2024-02-02T11:17:38.924Z,101718.78
2024-02-02T11:20:20.281Z,101703.63
2024-02-02T11:22:55.651Z,101700.59
2024-02-02T11:25:31.574Z,101705.72
2024-02-02T11:28:05.675Z,101701.31
2024-02-02T11:30:53.015Z,101684.97
2024-02-02T11:33:34.038Z,101670.13
2024-02-02T11:36:10.439Z,101659.88
2024-02-02T11:38:50.008Z,101658.34
2024-02-02T11:41:21.107Z,101642.84
2024-02-02T11:43:49.751Z,101648.94
2024-02-02T11:46:23.444Z,101654.34
2024-02-02T11:48:57.921Z,101653.34
2024-02-02T11:51:26.860Z,101650.09
2024-02-02T11:53:59.680Z,101654.34
2024-02-02T11:56:32.849Z,101647.47
2024-02-02T11:59:09.925Z,101647.03
2024-02-02T12:01:54.828Z,101653.94
2024-02-02T12:04:39.039Z,101641.16
2024-02-02T12:07:17.738Z,101636.25
2024-02-02T12:09:50.234Z,101643.16
2024-02-02T12:12:25.627Z,101644.00
2024-02-02T12:14:53.966Z,101645.69
2024-02-02T12:17:22.332Z,101646.53
2024-02-02T12:19:52.019Z,101644.53
2024-02-02T12:22:23.170Z,101636.69
2024-02-02T12:24:51.143Z,101634.47
2024-02-02T12:27:18.936Z,101636.88
2024-02-02T12:29:46.769Z,101634.19
2024-02-02T12:32:15.112Z,101622.41
2024-02-02T12:34:43.676Z,101621.25
2024-02-02T12:37:13.620Z,101624.16
2024-02-02T12:39:42.371Z,101608.66
2024-02-02T12:42:10.198Z,101613.03
2024-02-02T12:44:37.912Z,101613.56
2024-02-02T12:47:07.681Z,101611.75
2024-02-02T12:49:35.964Z,101595.56
2024-02-02T12:52:03.858Z,101592.41
2024-02-02T12:54:33.070Z,101588.72
2024-02-02T12:57:00.931Z,101591.91
2024-02-02T12:59:28.868Z,101586.00
2024-02-02T13:01:56.619Z,101564.25
2024-02-02T13:04:24.656Z,101571.84
2024-02-02T13:06:52.542Z,101564.75
2024-02-02T13:09:27.990Z,101568.69
2024-02-02T13:11:59.557Z,101553.31
2024-02-02T13:14:29.129Z,101551.81
2024-02-02T13:17:06.543Z,101537.63
2024-02-02T13:19:38.320Z,101544.25
2024-02-02T13:22:06.207Z,101531.31
2024-02-02T13:24:46.570Z,101533.16
2024-02-02T13:27:19.867Z,101513.44
2024-02-02T13:29:52.655Z,101517.00
2024-02-02T13:32:21.955Z,101518.66
2024-02-02T13:34:50.569Z,101517.31
2024-02-02T13:37:30.348Z,101516.31
2024-02-02T13:40:00.468Z,101503.69
2024-02-02T13:42:30.650Z,101496.59
2024-02-02T13:45:08.515Z,101485.28
2024-02-02T13:47:37.574Z,101503.16
2024-02-02T13:50:13.390Z,101498.59
2024-02-02T13:52:41.295Z,101502.00
2024-02-02T13:55:09.760Z,101508.09
2024-02-02T13:57:39.267Z,101500.16
2024-02-02T14:00:11.869Z,101496.28
2024-02-02T14:02:39.675Z,101503.06
2024-02-02T14:05:09.592Z,101501.53
2024-02-02T14:07:39.637Z,101500.66
2024-02-02T14:10:08.901Z,101517.03
2024-02-02T14:12:39.093Z,101506.41
2024-02-02T14:15:08.108Z,101513.50
2024-02-02T14:17:35.907Z,101510.44
2024-02-02T14:20:04.960Z,101509.09
2024-02-02T14:22:33.533Z,101520.00
2024-02-02T14:25:01.230Z,101517.19
2024-02-02T14:27:36.408Z,101510.75
2024-02-02T14:30:08.611Z,101519.00
2024-02-02T14:32:37.602Z,101513.28
2024-02-02T14:35:08.132Z,101523.88
2024-02-02T14:37:36.033Z,101515.31
2024-02-02T14:40:04.887Z,101500.97
2024-02-02T14:42:33.295Z,101488.16
2024-02-02T14:45:01.203Z,101477.88
2024-02-02T14:47:33.306Z,101469.59
2024-02-02T14:50:02.736Z,101483.09
2024-02-02T14:52:30.794Z,101480.94
2024-02-02T14:54:58.624Z,101483.97
2024-02-02T14:57:27.001Z,101479.22
2024-02-02T14:59:56.844Z,101486.50
2024-02-02T15:02:25.449Z,101497.78
2024-02-02T15:04:58.796Z,101495.25
2024-02-02T15:07:29.365Z,101492.53
2024-02-02T15:09:57.089Z,101493.72
2024-02-02T15:12:24.848Z,101483.56
2024-02-02T15:14:52.591Z,101496.53
2024-02-02T15:17:20.609Z,101500.91
2024-02-02T15:19:48.424Z,101505.31
2024-02-02T15:22:18.998Z,101509.00
2024-02-02T15:24:49.365Z,101502.22
2024-02-02T15:27:17.422Z,101513.03
2024-02-02T15:29:46.567Z,101524.47
2024-02-02T15:32:14.689Z,101525.50
2024-02-02T15:34:42.435Z,101538.63
2024-02-02T15:37:10.613Z,101546.34
2024-02-02T15:39:41.017Z,101546.28
2024-02-02T15:42:09.068Z,101557.06
2024-02-02T15:44:36.999Z,101566.19
2024-02-02T15:47:05.702Z,101571.41
2024-02-02T15:49:34.073Z,101563.13
2024-02-02T15:52:02.591Z,101562.44
2024-02-02T15:54:30.342Z,101568.69
2024-02-02T15:56:59.518Z,101564.63
2024-02-02T15:59:27.200Z,101575.41
2024-02-02T16:01:54.944Z,101564.25
2024-02-02T16:04:23.283Z,101571.19
2024-02-02T16:07:02.826Z,101571.47
2024-02-02T16:09:30.683Z,101558.13
2024-02-02T16:11:59.922Z,101562.06
2024-02-02T16:14:27.643Z,101579.47
2024-02-02T16:16:55.882Z,101568.84
2024-02-02T16:19:24.932Z,101574.25
2024-02-02T16:21:52.711Z,101568.53
2024-02-02T16:24:21.105Z,101567.69
2024-02-02T16:26:48.945Z,101549.75
2024-02-02T16:29:18.546Z,101548.44
2024-02-02T16:31:46.869Z,101549.59
2024-02-02T16:34:15.328Z,101552.97
2024-02-02T16:36:44.955Z,101539.03
2024-02-02T16:39:14.719Z,101550.97
2024-02-02T16:41:43.037Z,101549.44
2024-02-02T16:44:11.054Z,101550.09
2024-02-02T16:46:42.193Z,101560.44
2024-02-02T16:49:10.329Z,101563.50
2024-02-02T16:51:38.330Z,101557.13
2024-02-02T16:54:08.441Z,101553.88
2024-02-02T16:56:36.223Z,101571.88
2024-02-02T16:59:04.322Z,101557.56
2024-02-02T17:01:32.674Z,101570.22
2024-02-02T17:04:02.952Z,101572.38
2024-02-02T17:06:31.589Z,101562.13
2024-02-02T17:08:59.695Z,101554.03
2024-02-02T17:11:27.718Z,101560.97
2024-02-02T17:13:55.489Z,101548.66
2024-02-02T17:16:23.502Z,101548.50
2024-02-02T17:18:51.287Z,101546.78
2024-02-02T17:21:20.386Z,101543.09
2024-02-02T17:23:48.060Z,101565.13
2024-02-02T17:26:16.602Z,101563.34
2024-02-02T17:28:44.737Z,101563.97
2024-02-02T17:31:13.004Z,101565.34
2024-02-02T17:33:41.405Z,101566.38
2024-02-02T17:36:10.828Z,101565.03
2024-02-02T17:38:40.778Z,101560.47
2024-02-02T17:41:12.921Z,101559.47
2024-02-02T17:43:41.289Z,101560.69
2024-02-02T17:46:11.916Z,101548.06
2024-02-02T17:48:39.833Z,101547.03
2024-02-02T17:51:07.639Z,101546.53
2024-02-02T17:53:35.933Z,101538.63
2024-02-02T17:56:07.187Z,101539.78
2024-02-02T17:58:35.013Z,101541.59
2024-02-02T18:01:03.087Z,101539.78
2024-02-02T18:03:31.094Z,101550.41
2024-02-02T18:06:00.115Z,101548.19
2024-02-02T18:08:29.520Z,101552.34
2024-02-02T18:10:57.663Z,101551.38
2024-02-02T18:13:26.739Z,101557.97
2024-02-02T18:15:54.637Z,101561.66
2024-02-02T18:18:23.464Z,101566.59
2024-02-02T18:20:51.627Z,101560.81
2024-02-02T18:23:19.635Z,101567.84
2024-02-02T18:25:47.645Z,101569.88
2024-02-02T18:28:16.743Z,101558.09
2024-02-02T18:33:27.377Z,101542.22
2024-02-02T18:38:30.907Z,101559.44
2024-02-02T18:41:30.979Z,101553.00
2024-02-02T18:44:01.041Z,101552.00
2024-02-02T18:46:29.777Z,101571.88
2024-02-02T18:49:00.334Z,101574.75
2024-02-02T18:51:28.303Z,101584.38
2024-02-02T18:53:56.056Z,101570.88
2024-02-02T18:56:23.813Z,101577.97
2024-02-02T18:58:51.717Z,101572.25
2024-02-02T19:01:25.805Z,101576.97
2024-02-02T19:03:54.228Z,101574.13
2024-02-02T19:06:23.487Z,101583.91
2024-02-02T19:08:51.594Z,101589.97
2024-02-02T19:11:20.720Z,101592.84
2024-02-02T19:13:48.886Z,101600.59
2024-02-02T19:16:20.691Z,101601.28
2024-02-02T19:18:48.743Z,101592.50
2024-02-02T19:21:20.354Z,101593.38
2024-02-02T19:23:49.779Z,101587.97
2024-02-02T19:26:18.094Z,101595.69
2024-02-02T19:28:46.216Z,101594.69
2024-02-02T19:31:20.210Z,101599.22
2024-02-02T19:33:48.244Z,101589.13
2024-02-02T19:36:20.688Z,101596.38
2024-02-02T19:38:50.525Z,101591.66
2024-02-02T19:41:19.981Z,101599.94
2024-02-02T19:43:48.402Z,101598.56
2024-02-02T19:46:23.612Z,101587.94
2024-02-02T19:48:52.165Z,101590.13
2024-02-02T19:51:21.493Z,101597.22
2024-02-02T19:53:52.144Z,101598.75
2024-02-02T19:56:20.173Z,101600.47
2024-02-02T19:58:49.917Z,101585.09
2024-02-02T20:01:28.165Z,101586.66
2024-02-02T20:04:06.903Z,101584.78
2024-02-02T20:06:46.176Z,101579.38
2024-02-02T20:09:27.298Z,101583.78
2024-02-02T20:12:07.398Z,101564.19
2024-02-02T20:14:44.374Z,101570.28
2024-02-02T20:17:22.184Z,101552.41
2024-02-02T20:19:59.745Z,101561.50
2024-02-02T20:22:37.721Z,101557.81
2024-02-02T20:25:14.083Z,101570.28
2024-02-02T20:27:42.018Z,101572.28
2024-02-02T20:30:11.119Z,101559.50
2024-02-02T20:32:39.037Z,101562.91
2024-02-02T20:35:07.991Z,101569.59
2024-02-02T20:37:35.867Z,101562.91
2024-02-02T20:40:04.332Z,101564.56
2024-02-02T20:42:33.350Z,101575.22
2024-02-02T20:45:04.193Z,101565.44
2024-02-02T20:47:33.686Z,101569.66
2024-02-02T20:50:01.605Z,101564.94
2024-02-02T20:52:29.425Z,101568.16
2024-02-02T20:54:57.211Z,101573.22
2024-02-02T20:57:25.142Z,101552.81
2024-02-02T20:59:54.444Z,101564.47
2024-02-02T21:02:22.305Z,101568.00
2024-02-02T21:04:51.934Z,101565.13
2024-02-02T21:07:19.845Z,101564.69
2024-02-02T21:09:47.757Z,101557.94
2024-02-02T21:12:15.580Z,101541.22
2024-02-02T21:14:43.416Z,101546.31
2024-02-02T21:17:12.470Z,101542.09
2024-02-02T21:19:41.905Z,101542.09
2024-02-02T21:22:09.829Z,101536.00
2024-02-02T21:24:37.596Z,101539.41
2024-02-02T21:27:05.711Z,101532.31
2024-02-02T21:29:33.508Z,101537.69
2024-02-02T21:32:01.247Z,101539.84
2024-02-02T21:34:30.423Z,101539.06
2024-02-02T21:36:58.213Z,101538.06
2024-02-02T21:39:25.942Z,101534.66
2024-02-02T21:41:53.619Z,101542.44
2024-02-02T21:44:24.385Z,101547.69
2024-02-02T21:46:52.614Z,101555.59
2024-02-02T21:49:20.521Z,101556.78
2024-02-02T21:51:49.643Z,101540.75
2024-02-02T21:54:17.552Z,101540.06
2024-02-02T21:56:45.293Z,101533.66
2024-02-02T21:59:13.069Z,101535.34
2024-02-02T22:01:41.625Z,101532.66
2024-02-02T22:04:09.382Z,101537.88
2024-02-02T22:06:37.207Z,101536.72
2024-02-02T22:09:06.338Z,101540.06
2024-02-02T22:11:34.072Z,101532.69
2024-02-02T22:14:02.004Z,101528.13
2024-02-02T22:16:29.625Z,101530.69
2024-02-02T22:18:59.236Z,101536.38
2024-02-02T22:21:28.953Z,101534.53
2024-02-02T22:23:56.859Z,101527.97
2024-02-02T22:26:25.911Z,101523.25
2024-02-02T22:28:54.050Z,101532.53
2024-02-02T22:31:23.549Z,101535.09
2024-02-02T22:33:52.069Z,101528.00
2024-02-02T22:36:21.656Z,101535.75
2024-02-02T22:38:51.134Z,101534.06
2024-02-02T22:41:28.869Z,101519.56
2024-02-02T22:44:02.899Z,101532.38
2024-02-02T22:46:31.814Z,101526.81
2024-02-02T22:48:59.764Z,101519.38
2024-02-02T22:51:28.044Z,101520.06
2024-02-02T22:53:55.913Z,101511.09
2024-02-02T22:56:23.656Z,101513.81
2024-02-02T22:58:51.291Z,101510.81
2024-02-02T23:01:20.442Z,101503.53
2024-02-02T23:03:48.206Z,101508.63
2024-02-02T23:06:16.306Z,101500.34
2024-02-02T23:08:44.138Z,101500.34
2024-02-02T23:11:11.938Z,101496.63
2024-02-02T23:13:39.586Z,101495.59
2024-02-02T23:16:07.933Z,101496.13
2024-02-02T23:18:39.643Z,101505.75
2024-02-02T23:21:08.695Z,101504.56
2024-02-02T23:23:37.599Z,101502.41
2024-02-02T23:26:05.795Z,101503.41
2024-02-02T23:28:33.515Z,101508.63
2024-02-02T23:31:02.278Z,101494.13
2024-02-02T23:33:30.000Z,101512.84
2024-02-02T23:35:59.107Z,101506.44
2024-02-02T23:38:26.888Z,101505.28
2024-02-02T23:40:55.610Z,101505.75
2024-02-02T23:43:24.128Z,101509.97
2024-02-02T23:45:52.041Z,101499.53
2024-02-02T23:48:20.374Z,101494.94
2024-02-02T23:50:48.326Z,101498.34
2024-02-02T23:53:17.395Z,101508.97
2024-02-02T23:55:45.532Z,101497.81
2024-02-02T23:58:13.350Z,101501.38
